Time;durP1;ratioP1;P1;durP2;ratioP2;P2;SDS_P1;SDS_P2;PMS_P1;PMS_P2;Temp;Humidity;BMP_temperature;BMP_pressure;BME280_temperature;BME280_humidity;BME280_pressure;Samples;Min_cycle;Max_cycle;Signal;HPM_P1;HPM_P2
2022/06/29 00:00:53;;;;;;;25.52;7.65;;;;;;;22.67;100.00;97819.97;5003912;28;20524;-58
2022/06/29 00:03:19;;;;;;;35.20;8.95;;;;;;;22.77;100.00;97811.13;5007441;28;20026;-57
2022/06/29 00:05:44;;;;;;;26.15;7.47;;;;;;;22.49;100.00;97816.38;5006199;28;20037;-59
2022/06/29 00:08:09;;;;;;;30.05;7.85;;;;;;;22.63;100.00;97812.44;5005794;28;20064;-57
2022/06/29 00:10:37;;;;;;;34.88;9.10;;;;;;;22.61;100.00;97806.44;5006214;28;20543;-57
2022/06/29 00:13:03;;;;;;;28.35;8.43;;;;;;;22.71;100.00;97804.56;5006537;28;20033;-57
2022/06/29 00:15:29;;;;;;;28.55;8.43;;;;;;;22.52;100.00;97805.47;5005296;28;20526;-58
2022/06/29 00:17:54;;;;;;;27.77;7.70;;;;;;;22.69;100.00;97801.22;5004279;28;20103;-57
2022/06/29 00:20:20;;;;;;;36.70;9.38;;;;;;;22.52;100.00;97803.66;5006384;28;20540;-57
2022/06/29 00:22:46;;;;;;;25.77;8.20;;;;;;;22.45;100.00;97815.00;5005543;28;20213;-58
2022/06/29 00:25:12;;;;;;;32.30;8.80;;;;;;;22.56;100.00;97814.00;5005410;28;20033;-57
2022/06/29 00:27:39;;;;;;;35.55;8.98;;;;;;;22.68;100.00;97815.50;5006042;28;20029;-57
2022/06/29 00:30:05;;;;;;;34.33;9.15;;;;;;;22.47;100.00;97821.84;5005094;28;20030;-57
2022/06/29 00:32:31;;;;;;;28.92;8.32;;;;;;;22.75;100.00;97818.44;5005176;28;20046;-58
2022/06/29 00:34:57;;;;;;;24.90;8.15;;;;;;;22.45;100.00;97826.47;5006558;28;20030;-57
2022/06/29 00:37:23;;;;;;;28.30;8.27;;;;;;;22.59;100.00;97822.53;5004805;28;20049;-57
2022/06/29 00:39:48;;;;;;;30.30;8.48;;;;;;;22.46;100.00;97817.50;5002864;28;20423;-57
2022/06/29 00:42:14;;;;;;;29.63;8.52;;;;;;;22.50;100.00;97816.25;5003358;28;20069;-57
2022/06/29 00:44:39;;;;;;;33.40;8.77;;;;;;;22.49;100.00;97814.56;5004232;28;20060;-58
2022/06/29 00:47:05;;;;;;;22.25;7.75;;;;;;;22.42;100.00;97824.06;5005181;28;20103;-57
2022/06/29 00:49:32;;;;;;;32.17;8.98;;;;;;;22.35;100.00;97822.13;5006415;28;20030;-57
2022/06/29 00:52:03;;;;;;;33.80;9.07;;;;;;;22.26;100.00;97826.50;5003477;28;20768;-57
2022/06/29 00:54:34;;;;;;;31.45;8.82;;;;;;;22.27;100.00;97833.47;5006511;28;20135;-57
2022/06/29 00:57:02;;;;;;;31.88;8.52;;;;;;;22.18;100.00;97824.50;5003047;28;20052;-57
2022/06/29 00:59:33;;;;;;;33.97;9.05;;;;;;;22.24;100.00;97828.41;5004204;28;21002;-59
2022/06/29 01:01:59;;;;;;;31.42;9.05;;;;;;;22.38;100.00;97817.38;5001862;28;20664;-57
2022/06/29 01:04:25;;;;;;;28.13;8.40;;;;;;;22.36;100.00;97826.47;5004593;28;20030;-58
2022/06/29 01:06:51;;;;;;;29.25;8.45;;;;;;;22.19;100.00;97817.38;5002908;28;20255;-56
2022/06/29 01:09:17;;;;;;;27.95;8.20;;;;;;;22.20;100.00;97816.38;5004810;28;20438;-57
2022/06/29 01:11:42;;;;;;;26.35;8.32;;;;;;;22.23;100.00;97816.09;5003748;28;20052;-57
2022/06/29 01:14:14;;;;;;;29.35;8.45;;;;;;;22.29;100.00;97810.25;5003927;28;20021;-56
2022/06/29 01:16:39;;;;;;;29.65;8.55;;;;;;;22.11;100.00;97813.59;5002935;28;20037;-57
2022/06/29 01:19:04;;;;;;;35.92;8.95;;;;;;;22.13;100.00;97810.81;5002339;28;20022;-57
2022/06/29 01:21:31;;;;;;;26.35;8.15;;;;;;;22.07;100.00;97801.56;5003077;28;20045;-57
2022/06/29 01:23:56;;;;;;;33.35;9.00;;;;;;;22.05;100.00;97803.53;5004764;28;20107;-58
2022/06/29 01:26:22;;;;;;;27.85;8.30;;;;;;;22.19;100.00;97798.78;5004749;28;20141;-57
2022/06/29 01:28:47;;;;;;;24.70;8.20;;;;;;;22.18;100.00;97794.44;5003932;28;20057;-58
2022/06/29 01:31:17;;;;;;;33.00;9.07;;;;;;;22.13;100.00;97790.41;5002567;28;20122;-57
2022/06/29 01:33:44;;;;;;;29.48;8.57;;;;;;;22.19;100.00;97798.78;5005055;28;20072;-57
2022/06/29 01:36:11;;;;;;;33.63;8.95;;;;;;;22.02;100.00;97792.34;5004465;28;20044;-57
2022/06/29 01:38:37;;;;;;;37.60;10.02;;;;;;;21.95;100.00;97792.91;5004388;28;20546;-59
2022/06/29 01:41:08;;;;;;;35.88;9.05;;;;;;;22.20;100.00;97779.19;5002753;28;20048;-58
2022/06/29 01:43:37;;;;;;;34.40;9.30;;;;;;;22.03;100.00;97786.88;5003182;28;20037;-58
2022/06/29 01:46:02;;;;;;;27.77;8.88;;;;;;;22.08;100.00;97776.69;5004028;28;20029;-57
2022/06/29 01:48:28;;;;;;;33.60;9.27;;;;;;;21.86;100.00;97776.97;5005156;28;20036;-58
2022/06/29 01:50:53;;;;;;;36.17;9.85;;;;;;;21.93;100.00;97778.09;5003842;28;20147;-58
2022/06/29 01:53:19;;;;;;;29.63;9.27;;;;;;;22.07;100.00;97764.38;5001887;28;20057;-58
2022/06/29 01:55:45;;;;;;;29.98;9.32;;;;;;;21.86;100.00;97766.38;5004186;28;20099;-58
2022/06/29 01:58:11;;;;;;;27.10;8.93;;;;;;;21.83;100.00;97763.97;5002173;28;20044;-57
2022/06/29 02:00:37;;;;;;;32.88;9.00;;;;;;;21.88;100.00;97754.63;5003523;28;20740;-58
2022/06/29 02:03:02;;;;;;;31.58;9.90;;;;;;;21.51;100.00;97762.44;5005177;28;20160;-58
2022/06/29 02:05:28;;;;;;;29.63;9.13;;;;;;;21.93;100.00;97759.53;5003479;28;20038;-58
2022/06/29 02:07:53;;;;;;;30.20;9.65;;;;;;;21.90;100.00;97765.09;5004851;28;20030;-57
2022/06/29 02:10:19;;;;;;;35.20;9.68;;;;;;;21.64;100.00;97770.97;5000756;28;20037;-58
2022/06/29 02:12:44;;;;;;;32.83;9.48;;;;;;;21.90;100.00;97773.06;5004558;28;20741;-57
2022/06/29 02:15:10;;;;;;;36.17;9.20;;;;;;;21.98;100.00;97767.88;5004618;28;20582;-58
2022/06/29 02:17:35;;;;;;;32.65;9.70;;;;;;;21.70;100.00;97774.88;5007372;28;20060;-57
2022/06/29 02:20:01;;;;;;;37.45;9.95;;;;;;;21.95;100.00;97773.50;5005735;28;20105;-58
2022/06/29 02:22:26;;;;;;;38.40;10.52;;;;;;;22.10;100.00;97764.09;5007802;28;20037;-57
2022/06/29 02:24:51;;;;;;;41.60;10.68;;;;;;;21.61;100.00;97771.22;5005843;28;20546;-57
2022/06/29 02:27:17;;;;;;;43.85;11.02;;;;;;;21.74;100.00;97768.31;5005507;28;20040;-57
2022/06/29 02:29:42;;;;;;;40.92;10.57;;;;;;;21.78;100.00;97768.84;5006842;28;20040;-58
2022/06/29 02:34:52;;;;;;;36.20;9.85;;;;;;;21.46;100.00;97765.47;5007531;28;20028;-57
2022/06/29 02:37:17;;;;;;;32.88;10.02;;;;;;;21.69;100.00;97759.94;5008450;28;20049;-57
2022/06/29 02:39:43;;;;;;;36.13;10.30;;;;;;;21.83;100.00;97762.16;5007588;28;20566;-57
2022/06/29 02:42:13;;;;;;;33.03;9.98;;;;;;;21.77;100.00;97756.59;5005440;28;20254;-57
2022/06/29 02:44:39;;;;;;;35.53;10.15;;;;;;;21.79;100.00;97754.63;5006534;28;20420;-57
2022/06/29 02:47:06;;;;;;;36.03;10.25;;;;;;;21.70;100.00;97757.13;5006263;28;20091;-57
2022/06/29 02:49:31;;;;;;;34.65;9.60;;;;;;;21.66;100.00;97753.06;5006314;28;20037;-57
2022/06/29 02:51:57;;;;;;;34.10;10.48;;;;;;;21.62;100.00;97759.66;5006981;28;20034;-57
2022/06/29 02:54:22;;;;;;;33.75;9.82;;;;;;;21.61;100.00;97752.66;5007396;28;20029;-59
2022/06/29 02:56:48;;;;;;;29.92;9.38;;;;;;;21.72;100.00;97743.72;5006498;28;20037;-58
2022/06/29 02:59:13;;;;;;;34.42;9.82;;;;;;;21.55;100.00;97743.44;5005910;28;20025;-57
2022/06/29 03:01:38;;;;;;;32.38;9.73;;;;;;;21.66;100.00;97749.59;5005620;28;20037;-57
2022/06/29 03:04:04;;;;;;;29.48;9.95;;;;;;;21.51;100.00;97741.19;5007385;28;20076;-57
2022/06/29 03:06:29;;;;;;;29.50;9.27;;;;;;;21.69;100.00;97750.16;5004623;28;20060;-57
2022/06/29 03:08:55;;;;;;;31.48;9.80;;;;;;;21.52;100.00;97746.38;5008080;28;20140;-57
2022/06/29 03:11:20;;;;;;;27.95;9.00;;;;;;;21.71;100.00;97742.88;5008186;28;20103;-57
2022/06/29 03:13:45;;;;;;;38.30;10.23;;;;;;;21.53;100.00;97749.84;5007311;28;20498;-57
2022/06/29 03:16:11;;;;;;;29.48;9.68;;;;;;;21.45;100.00;97747.91;5006574;28;20712;-57
2022/06/29 03:18:36;;;;;;;38.10;10.43;;;;;;;21.55;100.00;97758.50;5005693;28;20140;-59
2022/06/29 03:21:02;;;;;;;36.80;10.20;;;;;;;21.63;100.00;97765.78;5007253;28;20148;-57
2022/06/29 03:23:27;;;;;;;36.40;10.20;;;;;;;21.43;100.00;97772.84;5005835;28;20022;-57
2022/06/29 03:25:53;;;;;;;31.52;10.20;;;;;;;21.48;100.00;97773.31;5007713;28;20191;-57
2022/06/29 03:28:18;;;;;;;35.95;9.95;;;;;;;21.57;100.00;97769.81;5005488;28;20171;-57
2022/06/29 03:30:43;;;;;;;33.95;9.82;;;;;;;21.36;100.00;97772.56;5007666;28;20076;-57
2022/06/29 03:33:09;;;;;;;32.25;10.00;;;;;;;21.52;100.00;97758.78;5007403;28;20034;-58
2022/06/29 03:35:34;;;;;;;38.28;10.95;;;;;;;21.47;100.00;97761.03;5007655;28;20038;-57
2022/06/29 03:37:59;;;;;;;34.00;10.30;;;;;;;20.92;100.00;97772.84;5007104;28;20452;-57
2022/06/29 03:40:25;;;;;;;34.90;10.70;;;;;;;21.23;100.00;97767.50;5005518;28;20025;-58
2022/06/29 03:42:51;;;;;;;32.63;10.20;;;;;;;21.37;100.00;97760.97;5005787;28;20037;-58
2022/06/29 03:45:16;;;;;;;37.22;10.35;;;;;;;21.16;100.00;97766.38;5004907;28;20032;-57
2022/06/29 03:47:42;;;;;;;32.78;10.48;;;;;;;21.12;100.00;97767.63;5007201;28;20105;-58
2022/06/29 03:50:08;;;;;;;40.75;10.63;;;;;;;21.42;100.00;97761.41;5005319;28;20479;-56
2022/06/29 03:52:34;;;;;;;33.83;9.80;;;;;;;21.56;100.00;97762.84;5005879;28;20333;-57
2022/06/29 03:55:00;;;;;;;31.50;10.10;;;;;;;21.42;100.00;97763.22;5007957;28;20801;-57
2022/06/29 03:57:25;;;;;;;26.35;9.10;;;;;;;21.51;100.00;97773.03;5005715;28;20512;-57
2022/06/29 03:59:50;;;;;;;35.97;10.48;;;;;;;21.69;100.00;97776.69;5005159;28;20309;-57
2022/06/29 04:02:17;;;;;;;30.45;9.80;;;;;;;21.22;100.00;97784.38;5003629;28;20081;-58
2022/06/29 04:04:42;;;;;;;29.35;10.00;;;;;;;21.79;100.00;97779.34;5007544;28;20135;-58
2022/06/29 04:07:07;;;;;;;34.88;9.88;;;;;;;21.53;100.00;97777.22;5005239;28;20167;-58
2022/06/29 04:09:33;;;;;;;38.58;10.52;;;;;;;21.19;100.00;97795.25;5005956;28;20040;-57
2022/06/29 04:11:58;;;;;;;32.75;9.95;;;;;;;21.44;100.00;97795.75;5005649;28;20065;-57
2022/06/29 04:14:28;;;;;;;30.77;9.70;;;;;;;21.82;100.00;97791.53;5005367;28;20038;-58
2022/06/29 04:16:55;;;;;;;31.98;10.18;;;;;;;21.82;100.00;97783.56;5004941;28;20042;-57
2022/06/29 04:19:21;;;;;;;29.50;10.15;;;;;;;21.78;100.00;97785.66;5006744;28;20039;-57
2022/06/29 04:21:47;;;;;;;30.70;9.80;;;;;;;21.81;100.00;97787.19;5004318;28;20037;-57
2022/06/29 04:24:13;;;;;;;32.22;9.88;;;;;;;21.60;100.00;97788.13;5006457;28;20017;-57
2022/06/29 04:26:39;;;;;;;34.03;9.43;;;;;;;21.88;100.00;97783.81;5005330;28;20073;-57
2022/06/29 04:29:05;;;;;;;34.72;10.43;;;;;;;21.83;100.00;97777.25;5003593;28;20076;-57
2022/06/29 04:31:30;;;;;;;28.90;9.32;;;;;;;22.43;100.00;97769.13;5003218;28;20040;-57
2022/06/29 04:33:55;;;;;;;31.13;9.95;;;;;;;22.33;100.00;97763.81;5006061;28;20033;-57
2022/06/29 04:36:21;;;;;;;30.90;9.27;;;;;;;22.40;100.00;97759.59;5003672;28;20054;-57
2022/06/29 04:38:46;;;;;;;32.33;9.30;;;;;;;22.91;100.00;97755.66;5004341;28;20120;-62
2022/06/29 04:41:13;;;;;;;31.75;9.73;;;;;;;22.77;100.00;97755.31;5003742;28;20037;-58
2022/06/29 04:43:38;;;;;;;31.20;9.40;;;;;;;22.46;100.00;97758.19;5003412;28;20092;-59
2022/06/29 04:46:19;;;;;;;29.55;9.40;;;;;;;21.89;100.00;97760.75;5004860;28;20169;-59
2022/06/29 04:48:46;;;;;;;32.72;9.80;;;;;;;23.09;100.00;97746.94;5004537;28;20103;-60
2022/06/29 04:51:12;;;;;;;32.15;9.75;;;;;;;22.63;100.00;97744.16;5005188;28;20661;-58
2022/06/29 04:53:37;;;;;;;30.80;9.15;;;;;;;23.07;100.00;97725.81;5005813;28;20780;-58
2022/06/29 04:56:03;;;;;;;27.10;8.82;;;;;;;23.71;100.00;97716.97;5003925;28;20034;-58
2022/06/29 04:58:28;;;;;;;36.28;9.55;;;;;;;24.09;100.00;97720.31;5005504;28;20040;-58
2022/06/29 05:00:54;;;;;;;28.17;9.07;;;;;;;25.09;100.00;97724.22;5000296;28;20614;-58
2022/06/29 05:03:19;;;;;;;29.60;8.73;;;;;;;25.87;100.00;97724.88;5002878;28;20030;-58
2022/06/29 05:05:47;;;;;;;21.30;7.85;;;;;;;27.69;100.00;97710.78;5007722;28;20065;-60
2022/06/29 05:08:13;;;;;;;23.63;8.00;;;;;;;26.38;100.00;97714.03;5005968;28;20030;-59
2022/06/29 05:10:38;;;;;;;28.17;7.95;;;;;;;28.47;100.00;97716.81;5003052;28;20045;-60
2022/06/29 05:13:04;;;;;;;24.55;7.82;;;;;;;29.56;100.00;97721.56;5004802;28;20030;-60
2022/06/29 05:15:29;;;;;;;26.10;8.13;;;;;;;27.48;100.00;97732.88;5003882;28;20144;-57
2022/06/29 05:17:54;;;;;;;21.02;7.53;;;;;;;25.29;100.00;97734.63;5006765;28;20476;-57
2022/06/29 05:20:21;;;;;;;24.40;7.75;;;;;;;25.68;100.00;97736.75;5003169;28;20472;-57
2022/06/29 05:22:47;;;;;;;29.15;7.57;;;;;;;25.21;100.00;97736.25;5003906;28;20032;-57
2022/06/29 05:25:12;;;;;;;23.15;7.63;;;;;;;24.48;100.00;97749.22;5003900;28;20029;-56
2022/06/29 05:27:38;;;;;;;23.95;7.95;;;;;;;24.30;100.00;97747.44;5004316;28;20465;-57
2022/06/29 05:30:03;;;;;;;31.25;8.95;;;;;;;23.65;100.00;97759.19;5004019;28;20025;-57
2022/06/29 05:32:29;;;;;;;27.80;8.60;;;;;;;23.48;100.00;97758.19;5005145;28;20068;-59
2022/06/29 05:34:54;;;;;;;25.63;8.30;;;;;;;23.79;100.00;97762.31;5004652;28;20128;-58
2022/06/29 05:37:20;;;;;;;26.60;7.78;;;;;;;24.11;100.00;97755.63;5003375;28;20041;-58
2022/06/29 05:39:45;;;;;;;27.85;8.32;;;;;;;24.26;100.00;97754.06;5004676;28;20995;-57
2022/06/29 05:42:14;;;;;;;24.15;7.50;;;;;;;23.24;100.00;97760.59;5003342;28;20057;-59
2022/06/29 05:44:40;;;;;;;26.60;8.07;;;;;;;24.07;100.00;97743.59;5005291;28;20021;-59
2022/06/29 05:47:06;;;;;;;25.95;7.88;;;;;;;24.25;100.00;97741.75;5003135;28;20040;-58
2022/06/29 05:49:31;;;;;;;27.17;7.95;;;;;;;23.74;100.00;97748.63;5006565;28;20104;-57
2022/06/29 05:51:57;;;;;;;28.23;7.95;;;;;;;23.35;100.00;97760.38;5007431;28;20073;-57
2022/06/29 05:54:22;;;;;;;25.33;7.68;;;;;;;23.39;100.00;97761.75;5010143;28;20561;-58
2022/06/29 05:56:48;;;;;;;25.02;7.35;;;;;;;23.54;100.00;97759.41;5009520;28;20034;-58
2022/06/29 05:59:13;;;;;;;29.65;8.38;;;;;;;23.89;100.00;97755.09;5010124;28;20537;-58
2022/06/29 06:01:38;;;;;;;26.10;8.90;;;;;;;23.70;100.00;97742.75;5008079;28;20049;-58
2022/06/29 06:04:04;;;;;;;28.23;7.70;;;;;;;23.50;100.00;97762.53;5007741;28;20022;-59
2022/06/29 06:06:30;;;;;;;23.42;7.25;;;;;;;23.38;100.00;97764.53;5007081;28;20069;-58
2022/06/29 06:08:55;;;;;;;25.13;7.47;;;;;;;23.68;100.00;97766.88;5008753;28;20121;-58
2022/06/29 06:11:21;;;;;;;29.77;8.13;;;;;;;23.66;100.00;97766.19;5008202;28;20052;-58
2022/06/29 06:13:46;;;;;;;20.33;7.72;;;;;;;23.24;100.00;97773.88;5008411;28;20049;-57
2022/06/29 06:16:12;;;;;;;31.25;8.80;;;;;;;22.93;100.00;97771.47;5008369;28;20037;-58
2022/06/29 06:18:37;;;;;;;31.38;8.65;;;;;;;22.98;100.00;97769.22;5008549;28;20493;-58
2022/06/29 06:21:02;;;;;;;24.27;7.55;;;;;;;23.33;100.00;97773.00;5006738;28;20121;-58
2022/06/29 06:23:28;;;;;;;28.90;7.75;;;;;;;23.25;100.00;97784.38;5007602;28;20729;-58
2022/06/29 06:25:53;;;;;;;23.35;6.90;;;;;;;22.89;100.00;97781.56;5008541;28;20042;-58
2022/06/29 06:28:18;;;;;;;30.23;8.38;;;;;;;22.79;100.00;97786.09;5007089;28;20037;-58
2022/06/29 06:30:44;;;;;;;27.08;7.75;;;;;;;23.10;100.00;97783.19;5004037;28;20088;-57
2022/06/29 06:33:09;;;;;;;30.73;8.05;;;;;;;23.35;100.00;97786.97;5008790;28;20021;-58
2022/06/29 06:35:34;;;;;;;30.65;7.85;;;;;;;22.59;100.00;97784.47;5008297;28;20422;-58
2022/06/29 06:38:01;;;;;;;24.75;7.55;;;;;;;22.63;100.00;97785.88;5007656;28;20080;-58
2022/06/29 06:43:11;;;;;;;25.83;7.50;;;;;;;22.83;100.00;97784.81;5007974;28;20088;-59
2022/06/29 06:45:36;;;;;;;26.67;7.85;;;;;;;22.09;100.00;97789.00;5008715;28;20034;-58
2022/06/29 06:48:01;;;;;;;30.25;8.20;;;;;;;22.16;100.00;97791.09;5008793;28;20112;-57
2022/06/29 06:50:27;;;;;;;30.35;7.97;;;;;;;22.68;100.00;97788.91;5006865;28;20037;-58
2022/06/29 06:52:52;;;;;;;28.50;8.02;;;;;;;22.27;100.00;97775.03;5007678;28;20269;-58
2022/06/29 06:55:18;;;;;;;28.20;7.78;;;;;;;22.87;100.00;97774.72;5008207;28;20032;-58
2022/06/29 06:57:43;;;;;;;29.60;7.95;;;;;;;22.78;100.00;97778.25;5006650;28;20040;-58
2022/06/29 07:00:09;;;;;;;38.50;8.75;;;;;;;23.32;100.00;97771.31;5008029;28;20065;-57
2022/06/29 07:02:35;;;;;;;32.58;8.23;;;;;;;22.95;100.00;97758.03;5007908;28;20144;-58
2022/06/29 07:05:01;;;;;;;31.30;8.32;;;;;;;23.51;100.00;97753.53;5006913;28;20036;-58
2022/06/29 07:07:27;;;;;;;23.20;7.25;;;;;;;24.05;100.00;97754.41;5007363;28;20153;-58
2022/06/29 07:09:52;;;;;;;32.83;8.20;;;;;;;24.71;100.00;97752.22;5006702;28;20487;-57
2022/06/29 07:12:17;;;;;;;24.17;7.18;;;;;;;25.72;100.00;97749.59;5005928;28;20089;-57
2022/06/29 07:14:43;;;;;;;30.65;7.90;;;;;;;25.90;100.00;97749.44;5007172;28;20034;-59
2022/06/29 07:17:08;;;;;;;25.67;7.30;;;;;;;25.47;100.00;97746.03;5006606;28;20096;-58
2022/06/29 07:19:33;;;;;;;29.83;7.93;;;;;;;27.22;100.00;97741.16;5007567;28;20593;-58
2022/06/29 07:21:59;;;;;;;26.92;7.15;;;;;;;29.05;100.00;97730.44;5007618;28;20034;-60
2022/06/29 07:24:24;;;;;;;25.38;6.85;;;;;;;31.01;94.32;97722.94;5005420;28;20119;-59
2022/06/29 07:26:50;;;;;;;22.30;6.35;;;;;;;32.14;67.21;97716.19;5007034;28;20070;-59
2022/06/29 07:29:15;;;;;;;22.75;6.72;;;;;;;31.46;69.73;97717.09;5014615;28;20599;-58
2022/06/29 07:31:41;;;;;;;22.52;5.90;;;;;;;33.69;63.87;97704.72;5004395;28;20167;-60
2022/06/29 07:34:06;;;;;;;18.30;6.03;;;;;;;35.69;53.27;97702.69;5007605;28;20447;-59
2022/06/29 07:36:31;;;;;;;18.85;5.78;;;;;;;30.64;74.65;97702.63;5008770;28;20064;-58
2022/06/29 07:38:57;;;;;;;15.80;5.22;;;;;;;32.31;64.11;97705.81;5005436;28;20025;-58
2022/06/29 07:41:22;;;;;;;14.50;5.20;;;;;;;34.34;58.17;97707.97;5006494;28;20068;-58
2022/06/29 07:43:48;;;;;;;16.15;5.55;;;;;;;34.06;56.77;97715.69;5007609;28;20029;-58
2022/06/29 07:46:13;;;;;;;14.88;5.20;;;;;;;36.37;49.36;97714.13;5006717;28;20037;-59
2022/06/29 07:48:38;;;;;;;19.17;5.78;;;;;;;35.87;47.17;97710.75;5004603;28;20033;-59
2022/06/29 07:51:04;;;;;;;18.33;5.10;;;;;;;33.54;54.07;97726.63;5004313;28;20046;-58
2022/06/29 07:53:29;;;;;;;13.07;5.05;;;;;;;34.01;51.93;97710.94;5005746;28;20045;-59
2022/06/29 07:55:55;;;;;;;12.70;4.90;;;;;;;34.75;50.80;97711.97;5003099;28;20042;-59
2022/06/29 07:58:21;;;;;;;11.85;4.97;;;;;;;32.14;57.44;97702.72;5006809;28;20040;-59
2022/06/29 08:00:46;;;;;;;13.60;5.28;;;;;;;34.61;51.40;97707.72;5003632;28;20122;-59
2022/06/29 08:03:12;;;;;;;15.43;5.43;;;;;;;36.22;45.19;97714.59;5005589;28;20088;-59
2022/06/29 08:05:38;;;;;;;12.93;4.90;;;;;;;36.04;45.89;97704.63;5005127;28;20029;-58
2022/06/29 08:08:04;;;;;;;14.10;5.15;;;;;;;37.55;43.36;97711.19;5004744;28;20125;-58
2022/06/29 08:10:33;;;;;;;14.57;5.10;;;;;;;36.06;44.35;97708.78;5006047;28;20100;-60
2022/06/29 08:12:59;;;;;;;11.27;4.60;;;;;;;36.57;43.94;97697.47;5006126;28;20030;-60
2022/06/29 08:15:26;;;;;;;9.35;4.35;;;;;;;35.01;46.67;97706.47;5005146;28;20415;-58
2022/06/29 08:17:52;;;;;;;14.45;5.03;;;;;;;34.37;48.51;97696.72;5005875;28;20106;-59
2022/06/29 08:20:19;;;;;;;13.13;5.00;;;;;;;34.54;49.34;97696.13;5003610;28;20278;-60
2022/06/29 08:22:45;;;;;;;15.00;5.53;;;;;;;33.28;52.89;97709.50;5004549;28;20647;-59
2022/06/29 08:25:11;;;;;;;14.75;5.55;;;;;;;31.03;63.89;97693.13;5006256;28;20029;-59
2022/06/29 08:27:37;;;;;;;14.68;5.55;;;;;;;32.16;59.97;97700.63;5006116;28;20013;-60
2022/06/29 08:30:04;;;;;;;20.08;6.35;;;;;;;31.80;63.68;97696.44;5007444;28;20031;-58
2022/06/29 08:32:30;;;;;;;16.08;5.88;;;;;;;30.93;69.40;97697.03;5002534;28;20520;-59
2022/06/29 08:35:00;;;;;;;15.30;6.10;;;;;;;29.21;89.52;97697.22;5004841;28;20033;-58
2022/06/29 08:37:29;;;;;;;15.83;6.20;;;;;;;29.55;82.81;97698.41;5004059;28;20137;-58
2022/06/29 08:39:54;;;;;;;21.08;6.90;;;;;;;31.32;72.43;97687.41;5005333;28;20360;-58
2022/06/29 08:42:23;;;;;;;20.17;6.95;;;;;;;32.55;63.58;97694.34;5002307;28;20115;-59
2022/06/29 08:44:50;;;;;;;15.48;5.95;;;;;;;32.82;61.92;97692.41;5005042;28;20561;-58
2022/06/29 08:47:16;;;;;;;16.70;6.10;;;;;;;30.22;75.74;97690.94;5002799;28;20034;-59
2022/06/29 08:49:43;;;;;;;18.38;6.45;;;;;;;29.40;85.40;97696.59;5005851;28;20871;-58
2022/06/29 08:52:09;;;;;;;15.65;6.00;;;;;;;29.81;84.62;97694.34;5004337;28;20034;-58
2022/06/29 08:54:37;;;;;;;20.08;6.57;;;;;;;29.01;100.00;97695.09;5005172;28;20065;-58
2022/06/29 08:57:03;;;;;;;21.90;7.00;;;;;;;28.76;100.00;97697.25;5004436;28;20488;-58
2022/06/29 08:59:29;;;;;;;21.70;6.60;;;;;;;28.09;100.00;97692.75;5005254;28;20594;-58
2022/06/29 09:01:55;;;;;;;18.13;6.47;;;;;;;27.97;100.00;97694.19;5004192;28;20731;-58
2022/06/29 09:04:21;;;;;;;17.80;6.38;;;;;;;28.51;100.00;97696.69;5005250;28;20250;-58
2022/06/29 09:06:52;;;;;;;17.73;6.00;;;;;;;27.81;100.00;97695.09;5006445;28;20357;-60
2022/06/29 09:09:18;;;;;;;;;;;;;;;27.14;100.00;97687.69;5005539;28;20538;-59
2022/06/29 09:11:43;;;;;;;22.58;6.47;;;;;;;26.81;100.00;97693.19;5005953;28;20413;-58
2022/06/29 09:14:16;;;;;;;29.27;6.93;;;;;;;26.33;100.00;97693.97;5005301;28;20029;-58
2022/06/29 09:17:03;;;;;;;21.90;6.65;;;;;;;25.58;100.00;97713.69;5013490;28;20594;-58
2022/06/29 09:19:42;;;;;;;24.58;6.63;;;;;;;26.37;100.00;97701.66;5005064;28;20042;-58
2022/06/29 09:22:08;;;;;;;19.88;5.70;;;;;;;26.47;100.00;97694.28;5004612;28;20040;-59
2022/06/29 09:24:34;;;;;;;23.90;6.35;;;;;;;27.09;100.00;97694.41;5004838;28;20034;-58
2022/06/29 09:27:02;;;;;;;22.20;5.95;;;;;;;27.37;100.00;97691.25;5002512;28;20141;-58
2022/06/29 09:29:30;;;;;;;22.60;6.45;;;;;;;28.23;100.00;97685.72;5005359;28;20103;-58
2022/06/29 09:32:02;;;;;;;21.73;5.72;;;;;;;28.20;100.00;97668.16;5006236;28;20172;-59
2022/06/29 09:34:32;;;;;;;25.92;6.55;;;;;;;28.64;100.00;97675.41;5005162;28;20030;-59
2022/06/29 09:36:59;;;;;;;30.92;6.97;;;;;;;27.75;100.00;97685.94;5004115;28;20076;-58
2022/06/29 09:39:43;;;;;;;25.50;6.75;;;;;;;27.64;100.00;97678.34;5003829;28;20048;-58
2022/06/29 09:42:21;;;;;;;21.65;6.55;;;;;;;27.26;100.00;97675.59;5005814;28;20051;-58
2022/06/29 09:44:47;;;;;;;22.30;6.22;;;;;;;27.41;100.00;97684.53;5006019;28;20029;-58
2022/06/29 09:47:19;;;;;;;23.50;6.82;;;;;;;27.91;100.00;97684.19;5004368;28;20404;-58
2022/06/29 09:49:46;;;;;;;22.23;6.13;;;;;;;27.95;100.00;97680.97;5005248;28;20047;-58
2022/06/29 09:52:12;;;;;;;20.25;5.88;;;;;;;27.69;100.00;97684.00;5003125;28;20996;-58
2022/06/29 09:54:54;;;;;;;26.35;6.53;;;;;;;27.68;100.00;97685.00;5005671;28;20801;-59
2022/06/29 09:57:22;;;;;;;22.92;6.28;;;;;;;26.73;100.00;97675.34;5004289;28;20029;-58
2022/06/29 10:02:39;;;;;;;21.35;5.85;;;;;;;29.23;100.00;97684.44;5004448;28;20103;-58
2022/06/29 10:05:08;;;;;;;22.27;5.55;;;;;;;31.06;92.34;97679.25;5004249;28;20040;-58
2022/06/29 10:07:35;;;;;;;21.17;5.80;;;;;;;31.36;84.24;97665.44;5005599;28;20087;-61
2022/06/29 10:10:02;;;;;;;23.33;6.05;;;;;;;30.18;91.27;97667.13;5003940;28;20027;-59
2022/06/29 10:15:56;;;;;;;17.92;4.93;;;;;;;30.10;94.45;97669.13;5005085;28;20040;-59
2022/06/29 10:18:31;;;;;;;18.67;4.93;;;;;;;31.75;82.67;97658.50;5007512;28;20487;-59
2022/06/29 10:20:57;;;;;;;20.05;4.90;;;;;;;32.43;67.50;97659.06;5002784;28;20072;-60
2022/06/29 10:23:56;;;;;;;13.63;4.40;;;;;;;31.53;72.70;97658.66;5005061;28;20036;-59
2022/06/29 10:26:37;;;;;;;16.67;4.85;;;;;;;31.52;71.23;97657.00;4987888;28;20100;-59
2022/06/29 10:29:05;;;;;;;18.15;5.20;;;;;;;33.30;61.63;97660.66;5003934;28;20029;-59
2022/06/29 10:31:49;;;;;;;15.63;4.85;;;;;;;34.14;58.57;97654.00;5002206;28;20137;-60
2022/06/29 10:34:30;;;;;;;13.02;4.63;;;;;;;31.03;67.77;97655.44;5004875;28;20623;-59
2022/06/29 10:37:01;;;;;;;15.55;5.05;;;;;;;30.91;72.23;97650.59;5009124;28;20126;-59
2022/06/29 10:39:27;;;;;;;12.90;4.57;;;;;;;30.65;79.72;97656.66;5006865;28;20017;-59
2022/06/29 10:44:59;;;;;;;15.25;4.93;;;;;;;31.04;75.56;97649.00;5009192;28;20345;-59
2022/06/29 10:47:25;;;;;;;16.75;5.40;;;;;;;33.04;63.26;97651.63;5003966;28;20045;-59
2022/06/29 10:50:21;;;;;;;16.90;5.10;;;;;;;32.67;60.60;97643.25;5007714;28;20064;-58
2022/06/29 10:52:48;;;;;;;14.55;4.60;;;;;;;31.53;64.85;97637.09;4998180;28;20084;-59
2022/06/29 10:55:16;;;;;;;16.90;4.90;;;;;;;31.08;70.01;97639.47;5004694;28;20026;-60
2022/06/29 10:57:42;;;;;;;18.15;5.20;;;;;;;31.08;71.16;97637.63;5010596;28;20030;-61
2022/06/29 11:00:14;;;;;;;24.58;6.45;;;;;;;30.89;76.05;97625.69;5007080;28;20025;-58
2022/06/29 11:02:40;;;;;;;;;;;;;;;31.97;66.44;97630.28;5016254;28;20021;-59
2022/06/29 11:05:06;;;;;;;14.32;4.82;;;;;;;32.62;63.46;97629.56;5007632;28;19979;-59
2022/06/29 11:13:26;;;;;;;14.70;5.05;;;;;;;33.93;54.27;97613.81;4981074;28;20035;-60
2022/06/29 11:15:54;;;;;;;17.05;5.13;;;;;;;35.17;47.58;97619.09;5001732;28;20611;-57
2022/06/29 11:18:32;;;;;;;15.82;5.15;;;;;;;32.38;59.06;97618.38;5007567;28;20567;-58
2022/06/29 11:21:03;;;;;;;15.88;4.82;;;;;;;31.35;59.83;97613.41;5006446;28;20046;-58
2022/06/29 11:23:33;;;;;;;15.85;5.28;;;;;;;30.94;62.78;97603.59;5008414;28;20022;-58
2022/06/29 11:25:59;;;;;;;20.27;5.07;;;;;;;32.16;58.91;97609.72;5009346;28;20034;-58
2022/06/29 11:28:29;;;;;;;14.90;5.00;;;;;;;30.59;65.81;97618.97;5007126;28;20029;-58
2022/06/29 11:31:04;;;;;;;15.05;5.40;;;;;;;29.86;75.51;97614.75;5005771;28;20495;-59
2022/06/29 11:33:47;;;;;;;19.08;5.60;;;;;;;29.76;82.02;97614.28;5005771;28;20021;-58
2022/06/29 11:36:21;;;;;;;18.05;5.30;;;;;;;30.86;71.91;97609.97;5006269;28;20073;-57
2022/06/29 11:38:49;;;;;;;19.38;5.43;;;;;;;31.20;71.28;97605.53;5006911;28;20068;-57